createdAt,value
2023-04-21T00:01:34.290Z,34.94
2023-04-21T00:04:03.853Z,34.87
2023-04-21T00:06:34.149Z,34.84
2023-04-21T00:09:01.996Z,34.83
2023-04-21T00:11:29.343Z,34.68
2023-04-21T00:14:01.766Z,34.38
2023-04-21T00:16:28.974Z,34.38
2023-04-21T00:18:55.931Z,34.21
2023-04-21T00:21:25.739Z,33.97
2023-04-21T00:23:52.763Z,34.23
2023-04-21T00:26:23.347Z,34.25
2023-04-21T00:28:51.285Z,34.25
2023-04-21T00:31:18.379Z,33.76
2023-04-21T00:33:45.424Z,33.61
2023-04-21T00:36:12.504Z,33.73
2023-04-21T00:38:39.525Z,33.67
2023-04-21T00:41:08.855Z,33.36
2023-04-21T00:43:40.261Z,33.16
2023-04-21T00:46:09.150Z,33.27
2023-04-21T00:48:36.284Z,33.54
2023-04-21T00:51:03.396Z,33.56
2023-04-21T00:53:32.551Z,33.50
2023-04-21T00:55:59.514Z,33.67
2023-04-21T00:58:27.114Z,33.63
2023-04-21T01:00:58.202Z,33.70
2023-04-21T01:03:28.763Z,33.87
2023-04-21T01:05:56.658Z,33.77
2023-04-21T01:08:23.796Z,34.21
2023-04-21T01:10:50.907Z,33.98
2023-04-21T01:13:20.761Z,33.63
2023-04-21T01:15:51.005Z,33.61
2023-04-21T01:18:19.482Z,33.63
2023-04-21T01:20:50.089Z,34.01
2023-04-21T01:23:18.921Z,34.01
2023-04-21T01:25:47.155Z,34.38
2023-04-21T01:28:14.113Z,34.36
2023-04-21T01:30:41.037Z,34.56
2023-04-21T01:33:08.370Z,34.68
2023-04-21T01:35:38.112Z,35.22
2023-04-21T01:38:05.403Z,35.28
2023-04-21T01:40:32.673Z,35.36
2023-04-21T01:43:01.799Z,35.64
2023-04-21T01:45:28.742Z,36.05
2023-04-21T01:47:59.532Z,36.14
2023-04-21T01:50:29.473Z,36.02
2023-04-21T01:52:56.575Z,36.08
2023-04-21T01:55:24.543Z,36.41
2023-04-21T01:57:54.636Z,36.38
2023-04-21T02:00:21.684Z,36.45
2023-04-21T02:02:54.288Z,36.67
2023-04-21T02:05:21.318Z,36.31
2023-04-21T02:07:51.252Z,36.12
2023-04-21T02:10:18.226Z,35.90
2023-04-21T02:12:45.693Z,35.83
2023-04-21T02:15:13.336Z,35.84
2023-04-21T02:18:00.571Z,35.71
2023-04-21T02:20:30.733Z,35.65
2023-04-21T02:22:58.313Z,35.70
2023-04-21T02:25:28.345Z,35.69
2023-04-21T02:27:55.690Z,35.86
2023-04-21T02:30:22.707Z,36.02
2023-04-21T02:32:51.817Z,36.00
2023-04-21T02:35:21.839Z,36.10
2023-04-21T02:37:53.270Z,35.88
2023-04-21T02:40:22.809Z,36.13
2023-04-21T02:42:51.988Z,36.07
2023-04-21T02:45:19.068Z,36.08
2023-04-21T02:47:46.087Z,35.92
2023-04-21T02:50:14.782Z,35.75
2023-04-21T02:52:42.496Z,35.93
2023-04-21T02:55:12.824Z,35.70
2023-04-21T02:57:42.806Z,35.44
2023-04-21T03:00:12.638Z,35.57
2023-04-21T03:02:40.283Z,35.15
2023-04-21T03:05:07.807Z,35.28
2023-04-21T03:07:34.816Z,35.42
2023-04-21T03:10:07.354Z,35.51
2023-04-21T03:12:35.934Z,35.52
2023-04-21T03:15:04.816Z,35.97
2023-04-21T03:17:34.258Z,35.75
2023-04-21T03:20:01.684Z,35.49
2023-04-21T03:22:30.663Z,35.43
2023-04-21T03:24:58.431Z,35.58
2023-04-21T03:27:29.234Z,35.39
2023-04-21T03:29:57.246Z,35.32
2023-04-21T03:32:24.861Z,34.97
2023-04-21T03:34:53.252Z,35.10
2023-04-21T03:37:20.645Z,34.89
2023-04-21T03:39:49.441Z,34.66
2023-04-21T03:42:18.114Z,34.14
2023-04-21T03:45:06.988Z,33.58
2023-04-21T03:47:35.338Z,33.81
2023-04-21T03:50:08.881Z,33.65
2023-04-21T03:52:39.013Z,33.24
2023-04-21T03:55:14.353Z,32.92
2023-04-21T03:57:44.638Z,33.05
2023-04-21T04:00:19.042Z,32.82
2023-04-21T04:02:46.508Z,32.90
2023-04-21T04:05:14.116Z,32.55
2023-04-21T04:07:41.492Z,32.82
2023-04-21T04:10:12.046Z,32.49
2023-04-21T04:12:40.118Z,32.40
2023-04-21T04:15:08.128Z,32.52
2023-04-21T04:17:38.227Z,32.40
2023-04-21T04:20:09.692Z,32.42
2023-04-21T04:22:37.292Z,31.98
2023-04-21T04:25:05.465Z,32.64
2023-04-21T04:27:32.685Z,32.02
2023-04-21T04:29:59.999Z,31.91
2023-04-21T04:32:29.340Z,31.81
2023-04-21T04:34:56.460Z,31.78
2023-04-21T04:37:25.490Z,31.81
2023-04-21T04:39:58.666Z,31.52
2023-04-21T04:42:29.168Z,31.36
2023-04-21T04:45:02.026Z,31.65
2023-04-21T04:47:31.920Z,31.14
2023-04-21T04:50:00.171Z,30.91
2023-04-21T04:52:27.532Z,30.45
2023-04-21T04:54:57.518Z,30.80
2023-04-21T04:57:24.453Z,30.22
2023-04-21T04:59:58.115Z,30.19
2023-04-21T05:02:26.023Z,30.04
2023-04-21T05:04:53.425Z,30.10
2023-04-21T05:07:23.812Z,29.92
2023-04-21T05:09:50.910Z,29.88
2023-04-21T05:12:17.996Z,29.89
2023-04-21T05:14:45.088Z,29.48
2023-04-21T05:17:33.643Z,29.23
2023-04-21T05:20:19.528Z,29.17
2023-04-21T05:22:46.629Z,28.88
2023-04-21T05:25:15.970Z,29.26
2023-04-21T05:27:43.538Z,29.04
2023-04-21T05:30:11.118Z,28.86
2023-04-21T05:32:38.269Z,28.80
2023-04-21T05:35:05.980Z,28.98
2023-04-21T05:37:52.745Z,28.96
2023-04-21T05:40:19.933Z,28.80
2023-04-21T05:42:47.344Z,28.48
2023-04-21T05:45:14.586Z,28.94
2023-04-21T05:47:41.552Z,28.31
2023-04-21T05:50:10.989Z,28.65
2023-04-21T05:52:38.507Z,28.66
2023-04-21T05:55:12.607Z,28.57
2023-04-21T05:57:39.653Z,28.30
2023-04-21T06:00:07.829Z,27.90
2023-04-21T06:02:35.183Z,27.92
2023-04-21T06:05:03.088Z,27.78
2023-04-21T06:07:31.942Z,27.84
2023-04-21T06:09:59.157Z,27.92
2023-04-21T06:12:44.963Z,28.29
2023-04-21T06:15:12.078Z,27.83
2023-04-21T06:17:39.889Z,27.72
2023-04-21T06:20:09.500Z,27.80
2023-04-21T06:22:36.743Z,27.79
2023-04-21T06:25:06.572Z,27.71
2023-04-21T06:27:33.845Z,27.26
2023-04-21T06:30:00.918Z,26.83
2023-04-21T06:32:28.202Z,26.77
2023-04-21T06:34:58.254Z,27.46
2023-04-21T06:37:25.782Z,26.81
2023-04-21T06:39:54.200Z,26.79
2023-04-21T06:42:21.675Z,26.41
2023-04-21T06:44:50.530Z,26.29
2023-04-21T06:47:20.605Z,26.22
2023-04-21T06:49:47.893Z,25.82
2023-04-21T06:52:33.778Z,26.16
2023-04-21T06:55:08.171Z,26.24
2023-04-21T06:57:35.399Z,25.98
2023-04-21T07:00:06.091Z,25.97
2023-04-21T07:02:36.732Z,25.71
2023-04-21T07:05:04.335Z,25.58
2023-04-21T07:07:35.456Z,25.66
2023-04-21T07:10:22.263Z,25.78
2023-04-21T07:12:49.589Z,25.76
2023-04-21T07:15:17.346Z,25.62
2023-04-21T07:17:44.348Z,25.78
2023-04-21T07:20:11.873Z,25.70
2023-04-21T07:22:39.256Z,25.36
2023-04-21T07:25:06.985Z,25.64
2023-04-21T07:27:36.196Z,25.33
2023-04-21T07:30:07.723Z,25.85
2023-04-21T07:32:35.319Z,25.14
2023-04-21T07:35:03.530Z,24.46
2023-04-21T07:37:31.190Z,24.48
2023-04-21T07:39:58.812Z,24.36
2023-04-21T07:42:27.068Z,24.11
2023-04-21T07:45:12.687Z,24.09
2023-04-21T07:47:43.162Z,24.32
2023-04-21T07:50:10.674Z,24.33
2023-04-21T07:52:38.239Z,24.04
2023-04-21T07:55:05.839Z,24.22
2023-04-21T07:57:34.735Z,23.90
2023-04-21T08:00:06.222Z,23.51
2023-04-21T08:02:53.839Z,23.05
2023-04-21T08:05:31.821Z,22.87
2023-04-21T08:08:01.390Z,22.93
2023-04-21T08:10:28.512Z,22.37
2023-04-21T08:12:56.432Z,22.27
2023-04-21T08:15:23.767Z,22.33
2023-04-21T08:17:50.994Z,21.86
2023-04-21T08:20:18.368Z,21.75
2023-04-21T08:22:47.413Z,20.81
2023-04-21T08:25:15.532Z,20.57
2023-04-21T08:27:43.960Z,21.17
2023-04-21T08:30:11.740Z,21.27
2023-04-21T08:32:39.025Z,20.93
2023-04-21T08:35:06.458Z,20.67
2023-04-21T08:37:40.189Z,20.53
2023-04-21T08:40:07.882Z,20.11
2023-04-21T08:42:37.077Z,19.60
2023-04-21T08:45:05.575Z,19.54
2023-04-21T08:47:38.154Z,19.37
2023-04-21T08:50:08.004Z,19.11
2023-04-21T08:52:54.938Z,18.88
2023-04-21T08:55:32.642Z,18.55
2023-04-21T08:58:18.742Z,18.77
2023-04-21T09:00:46.041Z,18.71
2023-04-21T09:03:23.370Z,18.00
2023-04-21T09:06:08.480Z,18.53
2023-04-21T09:08:42.764Z,18.10
2023-04-21T09:11:14.233Z,17.97
2023-04-21T09:14:04.656Z,18.50
2023-04-21T09:16:38.869Z,18.04
2023-04-21T09:19:19.190Z,18.47
2023-04-21T09:21:46.616Z,18.18
2023-04-21T09:24:13.586Z,18.19
2023-04-21T09:26:59.552Z,17.89
2023-04-21T09:29:26.917Z,17.59
2023-04-21T09:31:53.962Z,18.33
2023-04-21T09:34:25.269Z,17.96
2023-04-21T09:37:07.800Z,17.67
2023-04-21T09:39:52.764Z,17.37
2023-04-21T09:42:45.130Z,17.50
2023-04-21T09:47:53.151Z,17.32
2023-04-21T09:50:51.192Z,17.56
2023-04-21T09:53:33.985Z,17.71
2023-04-21T09:56:05.766Z,16.96
2023-04-21T09:58:54.170Z,17.10
2023-04-21T10:01:21.293Z,17.17
2023-04-21T10:03:49.655Z,17.51
2023-04-21T10:06:21.653Z,17.17
2023-04-21T10:08:55.013Z,17.53
2023-04-21T10:11:40.649Z,17.38
2023-04-21T10:14:10.177Z,18.12
2023-04-21T10:16:40.451Z,17.55
2023-04-21T10:19:28.459Z,17.34
2023-04-21T10:22:14.004Z,17.09
2023-04-21T10:24:43.181Z,16.19
2023-04-21T10:27:31.906Z,16.63
2023-04-21T10:30:21.037Z,17.14
2023-04-21T10:32:48.924Z,17.17
2023-04-21T10:35:23.829Z,17.17
2023-04-21T10:37:54.249Z,17.53
2023-04-21T10:40:42.501Z,16.51
2023-04-21T10:43:42.907Z,16.90
2023-04-21T10:46:35.796Z,16.40
2023-04-21T10:49:12.398Z,15.90
2023-04-21T10:52:17.881Z,15.37
2023-04-21T10:55:20.480Z,15.47
2023-04-21T10:57:48.084Z,15.49
2023-04-21T11:00:17.700Z,15.41
2023-04-21T11:02:45.417Z,15.90
2023-04-21T11:05:15.915Z,15.79
2023-04-21T11:07:42.848Z,15.39
2023-04-21T11:10:11.483Z,15.19
2023-04-21T11:12:40.345Z,14.90
2023-04-21T11:15:13.392Z,15.16
2023-04-21T11:17:46.483Z,14.71
2023-04-21T11:20:13.848Z,15.70
2023-04-21T11:22:40.942Z,16.24
2023-04-21T11:25:39.242Z,16.60
2023-04-21T11:28:06.509Z,15.85
2023-04-21T11:30:52.613Z,15.26
2023-04-21T11:33:38.317Z,15.05
2023-04-21T11:36:11.164Z,14.90
2023-04-21T11:38:41.364Z,15.89
2023-04-21T11:41:12.444Z,17.33
2023-04-21T11:43:40.064Z,17.07
2023-04-21T11:46:17.193Z,15.77
2023-04-21T11:48:45.090Z,15.06
2023-04-21T11:51:16.581Z,14.67
2023-04-21T11:53:43.929Z,14.98
2023-04-21T11:56:12.087Z,14.86
2023-04-21T11:58:39.869Z,15.12
2023-04-21T12:01:28.593Z,16.56
2023-04-21T12:03:59.121Z,18.72
2023-04-21T12:06:28.857Z,18.01
2023-04-21T12:09:02.787Z,16.89
2023-04-21T12:11:31.103Z,15.26
2023-04-21T12:13:58.790Z,14.78
2023-04-21T12:16:29.743Z,14.29
2023-04-21T12:19:10.468Z,14.38
2023-04-21T12:21:40.329Z,16.53
2023-04-21T12:24:07.791Z,18.05
2023-04-21T12:26:44.423Z,19.15
2023-04-21T12:29:12.333Z,19.22
2023-04-21T12:31:39.508Z,16.93
2023-04-21T12:34:07.983Z,15.70
2023-04-21T12:36:36.630Z,14.88
2023-04-21T12:39:03.905Z,13.94
2023-04-21T12:41:33.611Z,14.16
2023-04-21T12:44:06.549Z,14.68
2023-04-21T12:46:33.596Z,16.66
2023-04-21T12:49:00.774Z,17.85
2023-04-21T12:51:27.783Z,17.44
2023-04-21T12:53:54.963Z,16.57
2023-04-21T12:56:41.697Z,15.97
2023-04-21T12:59:12.744Z,14.70
2023-04-21T13:01:41.682Z,14.09
2023-04-21T13:04:09.493Z,13.77
2023-04-21T13:06:41.083Z,13.60
2023-04-21T13:09:08.473Z,13.49
2023-04-21T13:11:35.675Z,14.38
2023-04-21T13:14:07.483Z,13.65
2023-04-21T13:16:34.694Z,13.79
2023-04-21T13:19:02.836Z,13.78
2023-04-21T13:21:31.321Z,13.11
2023-04-21T13:23:58.723Z,12.94
2023-04-21T13:26:26.493Z,13.47
2023-04-21T13:28:53.588Z,12.81
2023-04-21T13:31:21.040Z,12.72
2023-04-21T13:33:48.330Z,12.56
2023-04-21T13:36:15.639Z,12.54
2023-04-21T13:38:48.252Z,12.23
2023-04-21T13:41:15.382Z,11.63
2023-04-21T13:44:21.456Z,12.33
2023-04-21T13:46:48.716Z,12.34
2023-04-21T13:49:16.319Z,11.98
2023-04-21T13:52:02.084Z,11.90
2023-04-21T13:54:48.164Z,12.20
2023-04-21T13:57:16.519Z,12.03
2023-04-21T13:59:43.576Z,11.58
2023-04-21T14:02:31.682Z,11.57
2023-04-21T14:05:18.579Z,11.98
2023-04-21T14:07:53.235Z,12.41
2023-04-21T14:10:39.010Z,12.05
2023-04-21T14:13:06.484Z,12.12
2023-04-21T14:15:33.544Z,12.32
2023-04-21T14:18:00.664Z,13.36
2023-04-21T14:20:29.559Z,13.92
2023-04-21T14:22:56.959Z,13.13
2023-04-21T14:25:24.060Z,13.00
2023-04-21T14:27:51.188Z,12.84
2023-04-21T14:30:18.254Z,12.87
2023-04-21T14:33:04.359Z,13.01
2023-04-21T14:35:31.498Z,13.40
2023-04-21T14:37:58.895Z,14.70
2023-04-21T14:40:31.761Z,16.36
2023-04-21T14:43:01.978Z,17.21
2023-04-21T14:45:30.167Z,18.02
2023-04-21T14:47:57.394Z,19.12
2023-04-21T14:50:25.158Z,18.13
2023-04-21T14:53:43.428Z,16.10
2023-04-21T14:56:11.062Z,15.31
2023-04-21T14:58:38.142Z,15.03
2023-04-21T15:01:07.539Z,14.85
2023-04-21T15:03:35.178Z,14.66
2023-04-21T15:06:02.336Z,14.33
2023-04-21T15:08:48.209Z,14.47
2023-04-21T15:11:33.592Z,14.76
2023-04-21T15:14:05.358Z,14.81
2023-04-21T15:16:32.890Z,14.53
2023-04-21T15:19:00.913Z,15.51
2023-04-21T15:21:28.930Z,16.49
2023-04-21T15:24:05.459Z,18.05
2023-04-21T15:26:32.661Z,19.02
2023-04-21T15:29:02.607Z,19.39
2023-04-21T15:31:30.340Z,19.99
2023-04-21T15:34:16.091Z,20.38
2023-04-21T15:36:43.077Z,20.96
2023-04-21T15:39:29.136Z,21.20
2023-04-21T15:41:57.513Z,21.44
2023-04-21T15:44:25.095Z,21.64
2023-04-21T15:46:52.130Z,21.89
2023-04-21T15:49:19.111Z,22.65
2023-04-21T15:51:46.562Z,23.10
2023-04-21T15:54:13.652Z,23.13
2023-04-21T15:56:41.607Z,23.31
2023-04-21T15:59:15.713Z,23.38
2023-04-21T16:01:43.048Z,23.61
2023-04-21T16:04:10.229Z,23.63
2023-04-21T16:06:56.597Z,24.17
2023-04-21T16:09:43.282Z,24.54
2023-04-21T16:12:10.649Z,24.92
2023-04-21T16:15:01.590Z,24.98
2023-04-21T16:17:34.403Z,25.28
2023-04-21T16:20:01.482Z,25.66
2023-04-21T16:22:31.421Z,25.92
2023-04-21T16:25:03.059Z,25.83
2023-04-21T16:27:30.789Z,26.00
2023-04-21T16:29:58.006Z,26.55
2023-04-21T16:32:25.939Z,26.82
2023-04-21T16:34:53.137Z,27.07
2023-04-21T16:37:29.304Z,27.13
2023-04-21T16:40:18.240Z,27.17
2023-04-21T16:42:49.168Z,27.50
2023-04-21T16:45:16.996Z,27.34
2023-04-21T16:47:44.496Z,27.50
2023-04-21T16:50:45.791Z,27.94
2023-04-21T16:53:12.872Z,28.11
2023-04-21T16:55:40.672Z,28.38
2023-04-21T16:58:07.787Z,28.69
2023-04-21T17:00:36.278Z,28.75
2023-04-21T17:03:08.832Z,29.18
2023-04-21T17:05:54.521Z,29.09
2023-04-21T17:08:22.088Z,29.27
2023-04-21T17:10:49.294Z,29.36
2023-04-21T17:13:16.780Z,29.99
2023-04-21T17:15:44.025Z,29.95
2023-04-21T17:18:16.157Z,30.15
2023-04-21T17:20:43.666Z,30.46
2023-04-21T17:23:29.114Z,30.62
2023-04-21T17:25:56.728Z,30.53
2023-04-21T17:28:24.195Z,30.82
2023-04-21T17:31:00.443Z,30.81
2023-04-21T17:33:31.077Z,31.09
2023-04-21T17:36:03.430Z,30.91
2023-04-21T17:38:36.948Z,30.90
2023-04-21T17:41:07.112Z,31.28
2023-04-21T17:43:34.298Z,31.50
2023-04-21T17:46:01.437Z,31.84
2023-04-21T17:48:37.970Z,31.63
2023-04-21T17:51:30.122Z,31.83
2023-04-21T17:53:59.229Z,31.75
2023-04-21T17:56:27.585Z,31.76
2023-04-21T17:58:54.937Z,32.02
2023-04-21T18:01:22.038Z,32.22
2023-04-21T18:03:58.480Z,32.30
2023-04-21T18:06:28.525Z,32.55
2023-04-21T18:09:14.331Z,32.62
2023-04-21T18:11:42.014Z,32.53
2023-04-21T18:14:28.071Z,32.57
2023-04-21T18:16:55.692Z,32.82
2023-04-21T18:19:42.058Z,33.00
2023-04-21T18:22:12.514Z,33.17
2023-04-21T18:24:40.877Z,33.04
2023-04-21T18:27:08.175Z,33.23
2023-04-21T18:29:35.412Z,33.03
2023-04-21T18:32:03.003Z,32.80
2023-04-21T18:34:30.473Z,33.07
2023-04-21T18:37:00.137Z,33.14
2023-04-21T18:39:27.401Z,33.33
2023-04-21T18:41:54.881Z,33.36
2023-04-21T18:44:22.002Z,33.52
2023-04-21T18:46:49.313Z,33.82
2023-04-21T18:49:44.949Z,33.69
2023-04-21T18:52:13.845Z,34.07
2023-04-21T18:54:41.372Z,34.19
2023-04-21T18:57:08.485Z,34.17
2023-04-21T18:59:39.100Z,34.55
2023-04-21T19:02:25.138Z,34.45
2023-04-21T19:04:52.696Z,34.65
2023-04-21T19:07:31.415Z,34.76
2023-04-21T19:09:58.607Z,34.81
2023-04-21T19:12:27.039Z,35.24
2023-04-21T19:14:54.662Z,35.35
2023-04-21T19:17:22.074Z,35.43
2023-04-21T19:19:57.187Z,35.46
2023-04-21T19:22:24.586Z,35.57
2023-04-21T19:24:56.088Z,36.03
2023-04-21T19:27:24.114Z,36.38
2023-04-21T19:29:53.862Z,36.78
2023-04-21T19:32:21.401Z,36.93
2023-04-21T19:34:51.673Z,36.96
2023-04-21T19:37:19.085Z,37.22
2023-04-21T19:39:46.194Z,37.10
2023-04-21T19:42:13.516Z,37.49
2023-04-21T19:44:44.258Z,37.66
2023-04-21T19:47:11.613Z,37.42
2023-04-21T19:49:41.653Z,37.37
2023-04-21T19:52:08.854Z,37.62
2023-04-21T19:54:38.564Z,37.59
2023-04-21T19:57:08.639Z,37.87
2023-04-21T19:59:36.130Z,37.98
2023-04-21T20:02:07.286Z,38.19
2023-04-21T20:04:35.204Z,38.53
2023-04-21T20:07:02.626Z,38.64
2023-04-21T20:09:30.038Z,38.63
2023-04-21T20:11:57.187Z,38.66
2023-04-21T20:14:24.322Z,38.90
2023-04-21T20:16:51.540Z,38.72
2023-04-21T20:19:18.695Z,38.97
2023-04-21T20:21:50.012Z,38.81
2023-04-21T20:24:18.957Z,39.15
2023-04-21T20:26:46.127Z,39.02
2023-04-21T20:29:14.379Z,39.06
2023-04-21T20:31:41.989Z,39.33
2023-04-21T20:34:42.039Z,39.04
2023-04-21T20:37:37.282Z,39.55
2023-04-21T20:40:08.416Z,39.40
2023-04-21T20:42:36.490Z,39.48
2023-04-21T20:45:06.300Z,39.57
2023-04-21T20:47:35.697Z,39.76
2023-04-21T20:50:03.779Z,39.81
2023-04-21T20:52:32.946Z,39.84
2023-04-21T20:55:00.445Z,39.95
2023-04-21T20:57:27.572Z,40.13
2023-04-21T20:59:54.776Z,40.03
2023-04-21T21:02:21.994Z,40.24
2023-04-21T21:04:49.682Z,40.09
2023-04-21T21:07:19.049Z,40.34
2023-04-21T21:09:46.110Z,40.54
2023-04-21T21:12:13.221Z,40.60
2023-04-21T21:14:40.325Z,40.64
2023-04-21T21:17:07.600Z,40.57
2023-04-21T21:19:34.907Z,40.51
2023-04-21T21:22:01.924Z,40.29
2023-04-21T21:24:29.151Z,40.72
2023-04-21T21:26:57.423Z,40.70
2023-04-21T21:29:24.939Z,40.74
2023-04-21T21:31:52.016Z,40.63
2023-04-21T21:34:19.042Z,41.01
2023-04-21T21:36:46.076Z,41.12
2023-04-21T21:39:13.097Z,41.24
2023-04-21T21:41:43.156Z,41.28
2023-04-21T21:44:13.103Z,41.44
2023-04-21T21:46:40.738Z,41.56
2023-04-21T21:49:10.481Z,41.30
2023-04-21T21:51:37.470Z,41.52
2023-04-21T21:54:05.640Z,41.92
2023-04-21T21:56:33.662Z,42.06
2023-04-21T21:59:00.756Z,42.10
2023-04-21T22:01:27.787Z,42.41
2023-04-21T22:03:55.036Z,42.52
2023-04-21T22:06:26.908Z,42.27
2023-04-21T22:08:54.139Z,42.68
2023-04-21T22:11:24.182Z,42.65
2023-04-21T22:13:51.529Z,42.43
2023-04-21T22:16:18.761Z,42.68
2023-04-21T22:18:48.955Z,42.65
2023-04-21T22:21:16.710Z,42.74
2023-04-21T22:23:43.837Z,43.09
2023-04-21T22:26:16.084Z,43.07
2023-04-21T22:28:46.699Z,42.97
2023-04-21T22:31:15.599Z,42.96
2023-04-21T22:33:42.645Z,42.98
2023-04-21T22:36:10.045Z,43.05
2023-04-21T22:38:43.865Z,43.21
2023-04-21T22:41:10.958Z,43.29
2023-04-21T22:43:38.229Z,43.50
2023-04-21T22:46:06.383Z,43.46
2023-04-21T22:48:33.959Z,43.58
2023-04-21T22:51:01.717Z,43.79
2023-04-21T22:53:28.842Z,43.92
2023-04-21T22:55:55.851Z,43.99
2023-04-21T22:58:22.874Z,44.09
2023-04-21T23:00:50.425Z,43.92
2023-04-21T23:03:17.642Z,44.40
2023-04-21T23:05:47.444Z,44.56
2023-04-21T23:08:17.188Z,44.90
2023-04-21T23:10:47.561Z,45.19
2023-04-21T23:13:14.597Z,45.04
2023-04-21T23:15:42.564Z,45.17
2023-04-21T23:18:09.590Z,45.32
2023-04-21T23:20:37.214Z,45.42
2023-04-21T23:23:09.200Z,45.80
2023-04-21T23:25:36.312Z,45.81
2023-04-21T23:28:03.238Z,45.78
2023-04-21T23:30:30.588Z,46.25
2023-04-21T23:32:57.827Z,46.04
2023-04-21T23:35:27.702Z,46.29
2023-04-21T23:37:57.262Z,46.34
2023-04-21T23:40:24.367Z,46.38
2023-04-21T23:42:51.418Z,46.57
2023-04-21T23:45:18.535Z,46.59
2023-04-21T23:47:45.899Z,46.56
2023-04-21T23:50:22.216Z,46.61
2023-04-21T23:52:49.537Z,46.78
2023-04-21T23:55:18.099Z,46.87
2023-04-21T23:57:46.865Z,47.04
